Terminal Aerodrome Forecast
Issued by NWS

Home | Current Version | Previous Version | Text Only | Print | Product List | Glossary On
Versions: 1 2 3 4 5 6 7 8 9 10 11 12
681
FTUS42 TJSJ 191120
TAFJBQ
TAF
TJBQ 191120Z 1912/2012 07004KT P6SM VCSH BKN024 OVC045
     FM191300 08010KT P6SM SCT030
     FM191630 06013KT P6SM VCSH SCT025 BKN050
     FM192300 11005KT P6SM SCT025 BKN100=

USA.gov is the U.S. government's official web portal to all federal, state and local government web resources and services.